createdAt,value
2019-05-20T00:09:58.641Z,16.2
2019-05-20T00:25:13.638Z,16.3
2019-05-20T00:40:32.261Z,16.5
2019-05-20T00:55:48.669Z,16.4
2019-05-20T01:11:05.749Z,16.3
2019-05-20T01:26:13.683Z,16.2
2019-05-20T01:41:38.589Z,16.3
2019-05-20T01:56:55.188Z,16.2
2019-05-20T02:12:11.806Z,16.2
2019-05-20T02:27:28.356Z,16
2019-05-20T02:42:41.563Z,15.8
2019-05-20T02:58:01.319Z,15.6
2019-05-20T03:13:17.534Z,15.4
2019-05-20T03:28:33.854Z,15.3
2019-05-20T03:43:39.392Z,15.3
2019-05-20T03:59:06.183Z,15.3
2019-05-20T04:14:22.665Z,15.4
2019-05-20T04:29:38.947Z,15.8
2019-05-20T04:44:55.443Z,16
2019-05-20T05:00:08.521Z,16.2
2019-05-20T05:15:28.817Z,16.6
2019-05-20T05:30:45.717Z,16.8
2019-05-20T05:46:02.637Z,17.4
2019-05-20T06:01:11.776Z,18.6
2019-05-20T06:16:37.892Z,18.6
2019-05-20T06:31:55.526Z,18.4
2019-05-20T06:47:13.118Z,18.8
2019-05-20T07:02:19.897Z,19.2
2019-05-20T07:17:49.164Z,19.8
2019-05-20T07:33:07.626Z,20.5
2019-05-20T07:48:26.219Z,20.7
2019-05-20T08:03:28.094Z,20.9
2019-05-20T08:19:00.223Z,21.2
2019-05-20T08:34:22.635Z,21.2
2019-05-20T08:49:42.183Z,21.2
2019-05-20T09:05:00.406Z,21.4
2019-05-20T09:20:07.327Z,21.2
2019-05-20T09:35:38.209Z,21.4
2019-05-20T09:50:57.031Z,21.1
2019-05-20T10:06:15.821Z,21
2019-05-20T10:21:34.810Z,20.6
2019-05-20T10:36:46.062Z,20.7
2019-05-20T10:52:11.650Z,20.6
2019-05-20T11:07:30.209Z,20.4
2019-05-20T11:22:48.625Z,20.3
2019-05-20T11:37:51.583Z,20
2019-05-20T11:53:23.423Z,20.2
2019-05-20T12:08:43.991Z,20.3
2019-05-20T12:24:02.079Z,20.1
2019-05-20T12:39:20.275Z,19.7
2019-05-20T12:54:28.829Z,19.7
2019-05-20T13:09:56.405Z,19
2019-05-20T13:25:14.128Z,18.8
2019-05-20T13:40:45.490Z,18.5
2019-05-20T13:55:49.403Z,18.8
2019-05-20T14:11:04.632Z,18.9
2019-05-20T14:26:24.585Z,17.3
2019-05-20T14:41:41.430Z,16.7
2019-05-20T14:56:58.063Z,16
2019-05-20T15:12:03.752Z,15.6
2019-05-20T15:27:31.272Z,15.7
2019-05-20T15:42:47.315Z,15.8
2019-05-20T15:58:03.899Z,16
2019-05-20T16:13:20.390Z,16.4
2019-05-20T16:28:34.216Z,16.9
2019-05-20T16:43:54.057Z,16.5
2019-05-20T16:59:10.705Z,16.5
2019-05-20T17:14:27.469Z,17.1
2019-05-20T17:29:34.878Z,17.4
2019-05-20T17:45:02.190Z,17.9
2019-05-20T18:00:21.055Z,17.7
2019-05-20T18:15:37.796Z,17.5
2019-05-20T18:30:55.178Z,17.2
2019-05-20T18:46:05.638Z,17
2019-05-20T19:01:28.784Z,16.3
2019-05-20T19:16:45.327Z,16
2019-05-20T19:32:02.351Z,15.6
2019-05-20T19:47:18.270Z,15.9
2019-05-20T20:02:33.462Z,15.8
2019-05-20T20:17:51.375Z,15.6
2019-05-20T20:33:07.950Z,15.4
2019-05-20T20:48:24.147Z,14.9
2019-05-20T21:03:29.957Z,14.7
2019-05-20T21:18:55.981Z,14.4
2019-05-20T21:34:11.829Z,14.2
2019-05-20T21:49:27.483Z,14
2019-05-20T22:04:43.448Z,13.8
2019-05-20T22:19:55.205Z,13.7
2019-05-20T22:35:14.221Z,13.6
2019-05-20T22:50:29.712Z,13.4
2019-05-20T23:05:45.063Z,13.1
2019-05-20T23:20:50.000Z,13
2019-05-20T23:36:15.611Z,12.9
2019-05-20T23:51:30.903Z,12.8
